Time;durP1;ratioP1;P1;durP2;ratioP2;P2;SDS_P1;SDS_P2;PMS_P1;PMS_P2;Temp;Humidity;BMP_temperature;BMP_pressure;BME280_temperature;BME280_humidity;BME280_pressure;Samples;Min_cycle;Max_cycle;Signal;HPM_P1;HPM_P2
2022/07/24 00:00:53;;;;;;;6.28;3.47;;;;;;;;;;4943419;28;20042;-90
2022/07/24 00:03:19;;;;;;;3.72;2.75;;;;;;;;;;4928159;29;20047;-90
2022/07/24 00:05:45;;;;;;;6.70;2.88;;;;;;;;;;4926099;29;20353;-90
2022/07/24 00:08:11;;;;;;;7.70;3.63;;;;;;;;;;4925848;29;20086;-89
2022/07/24 00:10:37;;;;;;;4.55;2.90;;;;;;;;;;4940115;28;20027;-90
2022/07/24 00:13:03;;;;;;;6.15;3.53;;;;;;;;;;4943653;28;20674;-90
2022/07/24 00:15:30;;;;;;;9.15;3.65;;;;;;;;;;4937227;28;20032;-89
2022/07/24 00:17:56;;;;;;;7.68;3.88;;;;;;;;;;4925582;29;20384;-90
2022/07/24 00:20:22;;;;;;;8.63;4.15;;;;;;;;;;4929434;29;20158;-90
2022/07/24 00:22:49;;;;;;;9.85;4.07;;;;;;;;;;4909316;29;20030;-90
2022/07/24 00:25:15;;;;;;;6.95;3.78;;;;;;;;;;4940171;28;20035;-90
2022/07/24 00:27:41;;;;;;;12.45;5.60;;;;;;;;;;4941609;28;20098;-90
2022/07/24 00:30:07;;;;;;;8.25;4.57;;;;;;;;;;4931110;29;20475;-90
2022/07/24 00:32:33;;;;;;;5.25;4.15;;;;;;;;;;4911018;29;20063;-90
2022/07/24 00:34:59;;;;;;;8.82;4.20;;;;;;;;;;4942017;28;20024;-90
2022/07/24 00:37:27;;;;;;;11.98;4.85;;;;;;;;;;4943159;28;20515;-89
2022/07/24 00:39:53;;;;;;;11.57;4.63;;;;;;;;;;4936566;28;20036;-90
2022/07/24 00:42:19;;;;;;;9.35;4.32;;;;;;;;;;4928785;29;20075;-92
2022/07/24 00:44:48;;;;;;;7.68;4.70;;;;;;;;;;4939342;28;20043;-90
2022/07/24 00:47:14;;;;;;;7.32;4.85;;;;;;;;;;4908001;29;20032;-90
2022/07/24 00:49:40;;;;;;;9.55;4.53;;;;;;;;;;4940116;28;20043;-89
2022/07/24 00:52:06;;;;;;;6.50;4.63;;;;;;;;;;4923110;29;20419;-90
2022/07/24 00:54:32;;;;;;;6.13;4.40;;;;;;;;;;4941259;28;20036;-90
2022/07/24 00:56:59;;;;;;;6.28;4.55;;;;;;;;;;4922204;29;20035;-90
2022/07/24 00:59:25;;;;;;;9.60;4.82;;;;;;;;;;4925527;29;20496;-89
2022/07/24 01:01:51;;;;;;;9.05;5.15;;;;;;;;;;4923746;29;20377;-89
2022/07/24 01:04:17;;;;;;;8.23;5.07;;;;;;;;;;4943486;28;20070;-90
2022/07/24 01:06:44;;;;;;;9.55;5.03;;;;;;;;;;4937554;28;20103;-90
2022/07/24 01:09:11;;;;;;;12.35;4.88;;;;;;;;;;4924185;29;20040;-89
2022/07/24 01:11:38;;;;;;;8.30;5.15;;;;;;;;;;4940902;28;20059;-90
2022/07/24 01:14:04;;;;;;;11.07;4.80;;;;;;;;;;4937949;28;20504;-90
2022/07/24 01:16:30;;;;;;;10.35;5.28;;;;;;;;;;4923620;29;20123;-90
2022/07/24 01:18:56;;;;;;;6.35;5.03;;;;;;;;;;4933491;28;20065;-90
2022/07/24 01:21:22;;;;;;;8.30;5.32;;;;;;;;;;4940865;28;20339;-90
2022/07/24 01:23:49;;;;;;;11.07;5.35;;;;;;;;;;4928689;29;20044;-89
2022/07/24 01:26:15;;;;;;;10.18;4.78;;;;;;;;;;4924314;29;20119;-90
2022/07/24 01:28:41;;;;;;;11.85;5.53;;;;;;;;;;4941898;28;20027;-90
2022/07/24 01:31:07;;;;;;;15.07;5.28;;;;;;;;;;4914341;29;20091;-89
2022/07/24 01:33:33;;;;;;;10.80;5.30;;;;;;;;;;4943178;28;20047;-90
2022/07/24 01:35:59;;;;;;;10.48;5.57;;;;;;;;;;4942715;28;20035;-91
2022/07/24 01:38:25;;;;;;;14.23;5.65;;;;;;;;;;4943717;28;20039;-90
2022/07/24 01:40:51;;;;;;;12.05;5.68;;;;;;;;;;4942094;28;20032;-89
2022/07/24 01:43:17;;;;;;;6.30;4.78;;;;;;;;;;4915328;29;20041;-90
2022/07/24 01:45:43;;;;;;;11.30;5.43;;;;;;;;;;4947244;28;20118;-90
2022/07/24 01:48:09;;;;;;;14.20;5.78;;;;;;;;;;4920456;29;20055;-89
2022/07/24 01:50:35;;;;;;;9.50;5.70;;;;;;;;;;4930066;29;20365;-90
2022/07/24 01:53:02;;;;;;;10.68;5.60;;;;;;;;;;4930499;28;20032;-90
2022/07/24 01:55:28;;;;;;;8.35;5.47;;;;;;;;;;4944742;28;20028;-90
2022/07/24 01:57:54;;;;;;;10.52;5.47;;;;;;;;;;4944165;28;20059;-91
2022/07/24 02:00:20;;;;;;;8.50;5.68;;;;;;;;;;4926276;29;20107;-91
2022/07/24 02:02:46;;;;;;;16.95;5.93;;;;;;;;;;4944986;28;20125;-89
2022/07/24 02:05:12;;;;;;;8.57;5.60;;;;;;;;;;4943739;28;20103;-90
2022/07/24 02:07:39;;;;;;;9.65;5.65;;;;;;;;;;4933984;29;20032;-89
2022/07/24 02:10:05;;;;;;;11.20;5.53;;;;;;;;;;4926944;29;20128;-90
2022/07/24 02:12:31;;;;;;;8.77;5.70;;;;;;;;;;4929969;29;20527;-90
2022/07/24 02:14:57;;;;;;;11.68;6.18;;;;;;;;;;4947314;28;20036;-89
2022/07/24 02:17:23;;;;;;;7.90;5.57;;;;;;;;;;4944981;28;20035;-90
2022/07/24 02:19:49;;;;;;;7.80;5.75;;;;;;;;;;4943123;28;20047;-89
2022/07/24 02:22:15;;;;;;;8.43;5.78;;;;;;;;;;4947565;28;20046;-89
2022/07/24 02:24:41;;;;;;;9.95;6.15;;;;;;;;;;4945497;28;20090;-89
2022/07/24 02:27:07;;;;;;;10.82;6.60;;;;;;;;;;4946075;28;20036;-89
2022/07/24 02:29:33;;;;;;;13.02;6.47;;;;;;;;;;4944892;28;20036;-90
2022/07/24 02:32:00;;;;;;;13.55;6.22;;;;;;;;;;4930246;29;20027;-91
2022/07/24 02:34:33;;;;;;;11.15;5.82;;;;;;;;;;4941219;28;20058;-89
2022/07/24 02:36:59;;;;;;;12.25;5.72;;;;;;;;;;4944720;28;20038;-89
2022/07/24 02:39:25;;;;;;;10.98;5.95;;;;;;;;;;4914410;29;20035;-89
2022/07/24 02:41:51;;;;;;;13.85;6.53;;;;;;;;;;4916539;29;20031;-90
2022/07/24 02:44:17;;;;;;;9.63;5.95;;;;;;;;;;4944005;28;20547;-90
2022/07/24 02:46:43;;;;;;;8.48;6.00;;;;;;;;;;4941683;28;21003;-90
2022/07/24 02:49:09;;;;;;;19.92;6.35;;;;;;;;;;4944921;28;20142;-90
2022/07/24 02:51:35;;;;;;;8.98;5.75;;;;;;;;;;4930521;29;20030;-90
2022/07/24 02:54:01;;;;;;;9.25;5.88;;;;;;;;;;4918210;29;20119;-90
2022/07/24 02:56:27;;;;;;;14.38;6.93;;;;;;;;;;4943676;28;20554;-90
2022/07/24 02:58:53;;;;;;;8.35;5.80;;;;;;;;;;4945013;28;20040;-90
2022/07/24 03:01:19;;;;;;;10.05;6.18;;;;;;;;;;4938349;28;20046;-90
2022/07/24 03:03:45;;;;;;;9.15;6.28;;;;;;;;;;4945573;28;20467;-90
2022/07/24 03:06:11;;;;;;;12.73;5.93;;;;;;;;;;4918453;29;20031;-89
2022/07/24 03:08:37;;;;;;;12.80;6.10;;;;;;;;;;4916435;29;20091;-90
2022/07/24 03:11:03;;;;;;;7.22;5.60;;;;;;;;;;4941233;28;20091;-90
2022/07/24 03:13:29;;;;;;;11.38;6.65;;;;;;;;;;4949411;28;20043;-90
2022/07/24 03:16:02;;;;;;;9.38;6.10;;;;;;;;;;4948820;28;20034;-90
2022/07/24 03:18:28;;;;;;;12.70;6.90;;;;;;;;;;4932103;28;20066;-90
2022/07/24 03:20:54;;;;;;;8.77;5.70;;;;;;;;;;4930381;29;20066;-90
2022/07/24 03:23:20;;;;;;;7.40;5.82;;;;;;;;;;4931065;29;20036;-90
2022/07/24 03:25:46;;;;;;;15.18;5.97;;;;;;;;;;4922638;29;20031;-90
2022/07/24 03:28:12;;;;;;;8.98;6.40;;;;;;;;;;4941367;29;20027;-89
2022/07/24 03:30:38;;;;;;;10.82;6.47;;;;;;;;;;4926784;29;20028;-90
2022/07/24 03:33:04;;;;;;;9.75;6.40;;;;;;;;;;4956288;28;20034;-89
2022/07/24 03:35:30;;;;;;;12.55;6.47;;;;;;;;;;4938777;29;20020;-90
2022/07/24 03:37:57;;;;;;;9.10;6.57;;;;;;;;;;4951015;28;20055;-90
2022/07/24 03:40:23;;;;;;;10.77;6.43;;;;;;;;;;4932414;29;20051;-89
2022/07/24 03:42:49;;;;;;;8.95;6.00;;;;;;;;;;4945019;28;20039;-90
2022/07/24 03:45:15;;;;;;;11.00;5.95;;;;;;;;;;4931794;29;20028;-90
2022/07/24 03:47:41;;;;;;;9.38;6.60;;;;;;;;;;4931098;29;20277;-89
2022/07/24 03:50:07;;;;;;;10.98;6.50;;;;;;;;;;4928257;29;20040;-90
2022/07/24 03:52:34;;;;;;;9.20;6.50;;;;;;;;;;4933137;29;20147;-90
2022/07/24 03:55:00;;;;;;;11.50;6.65;;;;;;;;;;4931100;29;20519;-89
2022/07/24 03:57:26;;;;;;;10.25;6.43;;;;;;;;;;4928575;29;20722;-90
2022/07/24 03:59:52;;;;;;;11.50;6.53;;;;;;;;;;4919184;29;20126;-90
2022/07/24 04:02:18;;;;;;;10.80;6.20;;;;;;;;;;4946780;28;20452;-90
2022/07/24 04:04:44;;;;;;;12.00;6.63;;;;;;;;;;4930861;29;20032;-89
2022/07/24 04:07:10;;;;;;;11.93;6.57;;;;;;;;;;4927073;29;20034;-90
2022/07/24 04:09:36;;;;;;;9.60;6.20;;;;;;;;;;4939111;28;20063;-90
2022/07/24 04:12:02;;;;;;;11.23;6.47;;;;;;;;;;4929219;29;20074;-90
2022/07/24 04:14:28;;;;;;;9.38;6.32;;;;;;;;;;4931397;29;20135;-89
2022/07/24 04:16:54;;;;;;;8.50;5.90;;;;;;;;;;4929000;29;20110;-90
2022/07/24 04:19:20;;;;;;;14.95;6.78;;;;;;;;;;4940040;28;20444;-91
2022/07/24 04:21:46;;;;;;;12.68;6.53;;;;;;;;;;4941946;28;20035;-90
2022/07/24 04:24:12;;;;;;;11.57;6.45;;;;;;;;;;4943654;28;20043;-91
2022/07/24 04:26:38;;;;;;;13.25;6.10;;;;;;;;;;4943946;28;20476;-89
2022/07/24 04:29:04;;;;;;;12.02;6.07;;;;;;;;;;4913751;29;20032;-89
2022/07/24 04:31:30;;;;;;;8.40;5.90;;;;;;;;;;4924611;29;20043;-89
2022/07/24 04:33:57;;;;;;;11.00;6.47;;;;;;;;;;4910172;29;20036;-89
2022/07/24 04:36:23;;;;;;;9.93;6.45;;;;;;;;;;4939739;28;20132;-89
2022/07/24 04:38:49;;;;;;;14.52;6.65;;;;;;;;;;4940168;28;20521;-89
2022/07/24 04:41:17;;;;;;;11.32;6.40;;;;;;;;;;4939204;28;20035;-89
2022/07/24 04:43:43;;;;;;;12.48;5.75;;;;;;;;;;4924807;29;20024;-88
2022/07/24 04:46:09;;;;;;;9.93;6.20;;;;;;;;;;4939147;28;20063;-89
2022/07/24 04:48:35;;;;;;;10.70;6.05;;;;;;;;;;4928225;29;20446;-88
2022/07/24 04:51:01;;;;;;;7.97;5.63;;;;;;;;;;4938731;28;20036;-90
2022/07/24 04:53:29;;;;;;;9.52;5.70;;;;;;;;;;4943347;28;20071;-89
2022/07/24 04:55:55;;;;;;;11.82;6.00;;;;;;;;;;4939190;28;20075;-90
2022/07/24 04:58:21;;;;;;;9.45;6.38;;;;;;;;;;4926915;29;20031;-90
2022/07/24 05:00:47;;;;;;;9.25;6.50;;;;;;;;;;4939767;28;20703;-92
2022/07/24 05:03:13;;;;;;;7.63;5.68;;;;;;;;;;4939976;28;20039;-88
2022/07/24 05:05:39;;;;;;;12.60;6.32;;;;;;;;;;4932229;29;20040;-89
2022/07/24 05:08:05;;;;;;;8.23;4.93;;;;;;;;;;4928764;28;20039;-89
2022/07/24 05:10:31;;;;;;;13.02;6.38;;;;;;;;;;4932369;29;20103;-89
2022/07/24 05:12:57;;;;;;;8.88;6.05;;;;;;;;;;4931320;29;20046;-91
2022/07/24 05:15:24;;;;;;;9.93;5.75;;;;;;;;;;4930907;29;20047;-89
2022/07/24 05:17:50;;;;;;;10.48;5.45;;;;;;;;;;4939411;28;20034;-89
2022/07/24 05:20:16;;;;;;;7.47;5.15;;;;;;;;;;4942437;28;20047;-89
2022/07/24 05:22:42;;;;;;;17.98;5.07;;;;;;;;;;4940374;28;20040;-86
2022/07/24 05:25:08;;;;;;;9.13;6.22;;;;;;;;;;4940197;28;21310;-87
2022/07/24 05:27:34;;;;;;;8.48;6.00;;;;;;;;;;4930727;29;20126;-87
2022/07/24 05:30:00;;;;;;;7.65;5.50;;;;;;;;;;4941369;28;20036;-88
2022/07/24 05:32:26;;;;;;;7.68;5.75;;;;;;;;;;4937619;28;20103;-87
2022/07/24 05:34:52;;;;;;;6.60;5.13;;;;;;;;;;4928123;29;20101;-87
2022/07/24 05:37:18;;;;;;;7.38;5.10;;;;;;;;;;4940521;28;20044;-87
2022/07/24 05:39:44;;;;;;;12.20;6.45;;;;;;;;;;4941393;28;20099;-88
2022/07/24 05:42:10;;;;;;;13.68;5.50;;;;;;;;;;4940143;28;20043;-89
2022/07/24 05:44:37;;;;;;;10.55;5.63;;;;;;;;;;4939902;28;20053;-88
2022/07/24 05:47:03;;;;;;;8.65;5.35;;;;;;;;;;4907975;29;20511;-88
2022/07/24 05:49:29;;;;;;;8.75;5.38;;;;;;;;;;4941881;28;20610;-89
2022/07/24 05:51:55;;;;;;;9.13;6.28;;;;;;;;;;4940045;28;20412;-89
2022/07/24 05:54:21;;;;;;;10.35;5.90;;;;;;;;;;4927550;29;20031;-91
2022/07/24 05:56:47;;;;;;;14.77;6.93;;;;;;;;;;4926657;29;20038;-91
2022/07/24 05:59:13;;;;;;;10.00;5.53;;;;;;;;;;4949080;28;20538;-91
2022/07/24 06:01:39;;;;;;;8.85;5.57;;;;;;;;;;4940189;28;20028;-90
2022/07/24 06:04:06;;;;;;;10.45;6.05;;;;;;;;;;4916571;29;20046;-92
2022/07/24 06:06:32;;;;;;;8.43;6.25;;;;;;;;;;4943874;28;20485;-91
2022/07/24 06:08:58;;;;;;;9.95;6.00;;;;;;;;;;4926926;29;20062;-91
2022/07/24 06:11:24;;;;;;;12.32;5.72;;;;;;;;;;4939777;28;20106;-91
2022/07/24 06:13:50;;;;;;;8.77;6.28;;;;;;;;;;4943632;28;20027;-89
2022/07/24 06:16:16;;;;;;;12.68;6.55;;;;;;;;;;4942769;28;20051;-91
2022/07/24 06:18:42;;;;;;;12.20;7.15;;;;;;;;;;4914149;29;20118;-90
2022/07/24 06:21:08;;;;;;;9.73;5.55;;;;;;;;;;4943597;28;20044;-91
2022/07/24 06:23:34;;;;;;;10.95;7.38;;;;;;;;;;4944072;28;20042;-91
2022/07/24 06:26:00;;;;;;;14.63;6.97;;;;;;;;;;4942584;28;20439;-90
2022/07/24 06:28:26;;;;;;;9.82;6.53;;;;;;;;;;4940586;28;20031;-91
2022/07/24 06:30:52;;;;;;;12.52;6.88;;;;;;;;;;4930510;29;20035;-91
2022/07/24 06:33:18;;;;;;;11.38;6.95;;;;;;;;;;4928946;29;20759;-90
2022/07/24 06:35:44;;;;;;;14.65;7.60;;;;;;;;;;4940093;28;20519;-91
2022/07/24 06:38:11;;;;;;;14.48;8.68;;;;;;;;;;4942428;28;20115;-91
2022/07/24 06:40:38;;;;;;;11.70;7.30;;;;;;;;;;4940776;28;20031;-89
2022/07/24 06:43:04;;;;;;;14.57;8.52;;;;;;;;;;4929075;29;20295;-91
2022/07/24 06:45:32;;;;;;;16.13;10.10;;;;;;;;;;4926554;29;20039;-90
2022/07/24 06:47:59;;;;;;;14.43;8.50;;;;;;;;;;4924204;29;20036;-89
2022/07/24 06:50:25;;;;;;;14.73;8.38;;;;;;;;;;4939475;28;20046;-90
2022/07/24 06:52:51;;;;;;;16.45;9.15;;;;;;;;;;4940456;28;20035;-90
2022/07/24 06:55:17;;;;;;;15.88;9.27;;;;;;;;;;4941106;28;20030;-91
2022/07/24 06:57:43;;;;;;;16.42;9.55;;;;;;;;;;4927140;29;20127;-90
2022/07/24 07:00:09;;;;;;;13.30;9.15;;;;;;;;;;4943387;28;20197;-90
2022/07/24 07:02:36;;;;;;;16.27;9.32;;;;;;;;;;4943856;28;20091;-92
2022/07/24 07:05:02;;;;;;;15.85;9.25;;;;;;;;;;4941460;28;20032;-89
2022/07/24 07:07:28;;;;;;;17.73;9.48;;;;;;;;;;4944522;28;20738;-90
2022/07/24 07:09:54;;;;;;;19.98;9.25;;;;;;;;;;4927441;29;20123;-90
2022/07/24 07:12:20;;;;;;;13.90;9.23;;;;;;;;;;4928396;29;20118;-90
2022/07/24 07:14:46;;;;;;;14.05;9.07;;;;;;;;;;4946467;28;20118;-90
2022/07/24 07:17:15;;;;;;;20.52;9.65;;;;;;;;;;4917227;29;20504;-90
2022/07/24 07:19:42;;;;;;;14.52;8.48;;;;;;;;;;4946306;28;20052;-90
2022/07/24 07:22:09;;;;;;;16.75;8.75;;;;;;;;;;4947089;28;20054;-90
2022/07/24 07:24:35;;;;;;;21.08;10.05;;;;;;;;;;4930867;29;20135;-89
2022/07/24 07:27:01;;;;;;;16.20;9.63;;;;;;;;;;4932856;29;20234;-90
2022/07/24 07:29:27;;;;;;;11.77;7.68;;;;;;;;;;4931695;29;20101;-89
2022/07/24 07:31:53;;;;;;;14.65;9.13;;;;;;;;;;4931942;29;20050;-89
2022/07/24 07:34:19;;;;;;;15.18;9.50;;;;;;;;;;4946816;28;20043;-90
2022/07/24 07:36:45;;;;;;;17.05;8.32;;;;;;;;;;4933460;29;20110;-90
2022/07/24 07:39:11;;;;;;;14.88;8.68;;;;;;;;;;4931034;29;20135;-90
2022/07/24 07:41:37;;;;;;;14.35;7.95;;;;;;;;;;4931096;29;20066;-90
2022/07/24 07:44:03;;;;;;;13.15;7.80;;;;;;;;;;4949898;28;20424;-90
2022/07/24 07:46:30;;;;;;;11.55;7.20;;;;;;;;;;4932952;29;20051;-90
2022/07/24 07:48:56;;;;;;;9.00;6.18;;;;;;;;;;4941758;28;20032;-90
2022/07/24 07:51:22;;;;;;;8.10;5.45;;;;;;;;;;4942394;28;20457;-90
2022/07/24 07:53:49;;;;;;;11.48;6.50;;;;;;;;;;4930412;29;20020;-90
2022/07/24 07:56:15;;;;;;;9.88;6.85;;;;;;;;;;4945604;28;20424;-90
2022/07/24 07:58:41;;;;;;;14.73;6.40;;;;;;;;;;4931003;29;20419;-90
2022/07/24 08:01:07;;;;;;;8.68;6.35;;;;;;;;;;4948499;28;20035;-90
2022/07/24 08:03:33;;;;;;;10.55;5.70;;;;;;;;;;4952004;28;20082;-90
2022/07/24 08:06:01;;;;;;;7.22;5.43;;;;;;;;;;4923318;29;20023;-90
2022/07/24 08:08:27;;;;;;;8.93;4.78;;;;;;;;;;4935063;29;20488;-90
2022/07/24 08:10:53;;;;;;;6.57;3.67;;;;;;;;;;4967384;28;20028;-90
2022/07/24 08:13:19;;;;;;;5.10;3.38;;;;;;;;;;4960233;28;20167;-90
2022/07/24 08:15:45;;;;;;;5.93;3.63;;;;;;;;;;4958342;28;20055;-89
2022/07/24 08:18:11;;;;;;;5.57;3.45;;;;;;;;;;4957157;28;20041;-90
2022/07/24 08:20:38;;;;;;;4.65;3.28;;;;;;;;;;4926487;29;20085;-91
2022/07/24 08:23:04;;;;;;;4.40;3.17;;;;;;;;;;4955176;28;20815;-90
2022/07/24 08:25:30;;;;;;;18.92;3.40;;;;;;;;;;4951356;28;20067;-90
2022/07/24 08:27:56;;;;;;;6.40;3.63;;;;;;;;;;4936549;29;20038;-90
2022/07/24 08:30:23;;;;;;;3.67;3.13;;;;;;;;;;4948930;28;20031;-90
2022/07/24 08:32:56;;;;;;;4.95;3.00;;;;;;;;;;4940699;29;20023;-90
2022/07/24 08:35:23;;;;;;;5.35;3.58;;;;;;;;;;4948243;28;20043;-90
2022/07/24 08:37:50;;;;;;;7.13;3.90;;;;;;;;;;4927876;29;20028;-90
2022/07/24 08:40:16;;;;;;;4.18;3.33;;;;;;;;;;4943263;28;20443;-90
2022/07/24 08:42:42;;;;;;;6.25;3.55;;;;;;;;;;4944651;28;20035;-90
2022/07/24 08:45:08;;;;;;;9.88;3.58;;;;;;;;;;4946296;28;20031;-90
2022/07/24 08:47:41;;;;;;;4.68;3.45;;;;;;;;;;4945593;28;20043;-90
2022/07/24 08:50:08;;;;;;;8.13;3.83;;;;;;;;;;4929555;29;20127;-90
2022/07/24 08:52:38;;;;;;;4.07;3.10;;;;;;;;;;4931290;29;20326;-90
2022/07/24 08:55:04;;;;;;;8.73;4.38;;;;;;;;;;4946231;28;20495;-90
2022/07/24 08:57:31;;;;;;;5.93;3.80;;;;;;;;;;4943311;28;20035;-90
2022/07/24 08:59:57;;;;;;;4.85;4.07;;;;;;;;;;4930911;29;20032;-90
2022/07/24 09:02:23;;;;;;;7.40;3.88;;;;;;;;;;4932220;29;20054;-90
2022/07/24 09:04:51;;;;;;;4.15;3.45;;;;;;;;;;4929919;29;20036;-90
2022/07/24 09:07:24;;;;;;;5.43;3.78;;;;;;;;;;4934500;29;20717;-90
2022/07/24 09:10:04;;;;;;;4.97;3.42;;;;;;;;;;4928609;29;20024;-89
2022/07/24 09:12:34;;;;;;;5.47;3.58;;;;;;;;;;4929916;29;20082;-90
2022/07/24 09:15:01;;;;;;;7.15;3.53;;;;;;;;;;4944523;29;20052;-90
2022/07/24 09:17:27;;;;;;;3.97;2.92;;;;;;;;;;4946078;29;20132;-90
2022/07/24 09:20:00;;;;;;;5.88;3.47;;;;;;;;;;4945953;28;20557;-90
2022/07/24 09:22:34;;;;;;;6.50;2.63;;;;;;;;;;4946465;28;20067;-89
2022/07/24 09:25:09;;;;;;;7.47;4.53;;;;;;;;;;4944845;28;20031;-90
2022/07/24 09:27:37;;;;;;;4.20;3.15;;;;;;;;;;4946118;28;20456;-90
2022/07/24 09:30:04;;;;;;;10.18;4.00;;;;;;;;;;4945078;28;20415;-90
2022/07/24 09:32:30;;;;;;;6.10;3.83;;;;;;;;;;4945534;28;20119;-89
2022/07/24 09:34:56;;;;;;;6.30;4.38;;;;;;;;;;4948307;28;20040;-90
2022/07/24 09:37:22;;;;;;;4.97;3.80;;;;;;;;;;4931153;29;20035;-90
2022/07/24 09:39:48;;;;;;;4.78;3.60;;;;;;;;;;4945382;28;20027;-90
2022/07/24 09:42:15;;;;;;;4.93;3.45;;;;;;;;;;4944913;28;20032;-90
2022/07/24 09:44:41;;;;;;;5.75;3.40;;;;;;;;;;4929784;29;20032;-90
2022/07/24 09:47:11;;;;;;;5.95;3.33;;;;;;;;;;4930838;29;20023;-90
2022/07/24 09:49:39;;;;;;;4.32;3.50;;;;;;;;;;4931769;29;20476;-90
2022/07/24 09:52:15;;;;;;;6.57;4.05;;;;;;;;;;4948856;28;20080;-90
2022/07/24 09:54:48;;;;;;;9.73;3.20;;;;;;;;;;4934840;29;20977;-90
2022/07/24 09:57:17;;;;;;;7.95;3.45;;;;;;;;;;4930975;29;20042;-90
2022/07/24 09:59:53;;;;;;;6.20;3.30;;;;;;;;;;4916107;29;20035;-90
2022/07/24 10:02:21;;;;;;;3.65;2.88;;;;;;;;;;4931708;29;20515;-90
2022/07/24 10:04:48;;;;;;;3.25;2.65;;;;;;;;;;4948278;28;20542;-91
2022/07/24 10:07:16;;;;;;;7.60;3.08;;;;;;;;;;4917525;29;20480;-90
2022/07/24 10:09:46;;;;;;;3.40;2.70;;;;;;;;;;4947667;28;20563;-90
2022/07/24 10:12:13;;;;;;;4.90;3.00;;;;;;;;;;4932927;29;20115;-90
2022/07/24 10:14:41;;;;;;;5.47;3.00;;;;;;;;;;4948759;29;20024;-90
2022/07/24 10:17:15;;;;;;;5.20;3.15;;;;;;;;;;4948672;28;20052;-91
2022/07/24 10:19:57;;;;;;;3.58;2.33;;;;;;;;;;4948869;28;20056;-90
2022/07/24 10:22:34;;;;;;;4.28;2.78;;;;;;;;;;4947748;29;20118;-90
2022/07/24 10:25:07;;;;;;;4.57;2.45;;;;;;;;;;4944027;28;20091;-91
2022/07/24 10:27:34;;;;;;;5.95;2.92;;;;;;;;;;4942950;28;20062;-90
2022/07/24 10:30:01;;;;;;;16.25;3.58;;;;;;;;;;4932229;29;20036;-90
2022/07/24 10:32:28;;;;;;;5.80;2.90;;;;;;;;;;4928153;29;20094;-90
2022/07/24 10:35:00;;;;;;;7.15;2.65;;;;;;;;;;4931951;29;20031;-90
2022/07/24 10:37:29;;;;;;;3.85;2.33;;;;;;;;;;4949464;28;20601;-90
2022/07/24 10:40:14;;;;;;;3.83;2.60;;;;;;;;;;4930872;29;20028;-90
2022/07/24 10:42:59;;;;;;;6.60;2.88;;;;;;;;;;4946947;28;20507;-90
2022/07/24 10:45:28;;;;;;;3.15;2.63;;;;;;;;;;4947678;28;20039;-90
2022/07/24 10:47:55;;;;;;;6.10;2.58;;;;;;;;;;4916063;29;20104;-90
2022/07/24 10:50:22;;;;;;;7.28;2.63;;;;;;;;;;4947697;28;20067;-90
2022/07/24 10:52:48;;;;;;;14.27;2.72;;;;;;;;;;4932335;29;20480;-90
2022/07/24 10:55:20;;;;;;;3.95;2.83;;;;;;;;;;4945630;28;20032;-90
2022/07/24 10:57:53;;;;;;;4.90;2.45;;;;;;;;;;4946815;28;20075;-90
2022/07/24 11:00:23;;;;;;;4.35;2.08;;;;;;;;;;4946315;28;20036;-90
2022/07/24 11:03:04;;;;;;;12.05;3.38;;;;;;;;;;4946588;28;20032;-90
2022/07/24 11:05:35;;;;;;;4.68;2.90;;;;;;;;;;4941408;28;20125;-90
2022/07/24 11:08:13;;;;;;;6.68;3.03;;;;;;;;;;4946688;28;20043;-90
2022/07/24 11:10:50;;;;;;;5.82;3.00;;;;;;;;;;4945686;28;20035;-90
2022/07/24 11:13:34;;;;;;;6.03;3.25;;;;;;;;;;4945619;28;20380;-90
2022/07/24 11:16:17;;;;;;;4.00;2.92;;;;;;;;;;4946123;28;20047;-91
2022/07/24 11:18:52;;;;;;;6.75;3.55;;;;;;;;;;4946030;28;20119;-90
2022/07/24 11:21:29;;;;;;;3.72;2.45;;;;;;;;;;4915444;29;20035;-91
2022/07/24 11:24:14;;;;;;;4.95;2.58;;;;;;;;;;4946598;28;20052;-90
2022/07/24 11:26:47;;;;;;;6.83;2.60;;;;;;;;;;4942504;28;20024;-90
2022/07/24 11:29:13;;;;;;;7.45;2.25;;;;;;;;;;4932674;29;20319;-90
2022/07/24 11:31:39;;;;;;;5.13;2.75;;;;;;;;;;4947310;28;20027;-90
2022/07/24 11:34:05;;;;;;;7.45;2.83;;;;;;;;;;4942664;28;20112;-90
2022/07/24 11:36:32;;;;;;;10.68;2.83;;;;;;;;;;4946141;28;20123;-90
2022/07/24 11:38:58;;;;;;;4.78;2.80;;;;;;;;;;4930336;29;20106;-90
2022/07/24 11:41:24;;;;;;;4.05;2.60;;;;;;;;;;4945188;29;20031;-91
2022/07/24 11:43:51;;;;;;;5.07;2.80;;;;;;;;;;4932482;29;20030;-90
2022/07/24 11:46:32;;;;;;;7.97;3.28;;;;;;;;;;4930863;29;20054;-90
2022/07/24 11:49:06;;;;;;;4.22;2.75;;;;;;;;;;4930266;29;20092;-90
2022/07/24 11:51:33;;;;;;;6.18;2.78;;;;;;;;;;4928446;29;20088;-91
2022/07/24 11:54:01;;;;;;;10.70;3.40;;;;;;;;;;4934287;29;20034;-90
2022/07/24 11:56:29;;;;;;;5.82;3.10;;;;;;;;;;4945256;28;20102;-90
2022/07/24 11:58:55;;;;;;;10.98;2.80;;;;;;;;;;4945051;29;20484;-90
2022/07/24 12:01:23;;;;;;;8.45;2.88;;;;;;;;;;4945398;28;20027;-90
2022/07/24 12:03:50;;;;;;;9.40;2.92;;;;;;;;;;4931726;29;20086;-91
2022/07/24 12:06:16;;;;;;;4.05;3.03;;;;;;;;;;4946410;28;20118;-91
2022/07/24 12:08:42;;;;;;;8.45;2.70;;;;;;;;;;4920039;29;20583;-91
2022/07/24 12:11:08;;;;;;;5.78;2.67;;;;;;;;;;4944845;28;20034;-90
2022/07/24 12:13:34;;;;;;;9.82;2.67;;;;;;;;;;4945090;28;20042;-91
2022/07/24 12:16:00;;;;;;;4.97;2.63;;;;;;;;;;4931935;29;20445;-90
2022/07/24 12:18:26;;;;;;;4.45;2.85;;;;;;;;;;4931576;29;20090;-90
2022/07/24 12:20:58;;;;;;;4.38;2.83;;;;;;;;;;4915625;28;20050;-90
2022/07/24 12:23:24;;;;;;;4.20;2.70;;;;;;;;;;4942631;29;20534;-89
2022/07/24 12:25:50;;;;;;;4.28;2.85;;;;;;;;;;4929120;29;20027;-89
2022/07/24 12:28:20;;;;;;;5.18;2.20;;;;;;;;;;4940950;28;20019;-89
2022/07/24 12:30:47;;;;;;;4.95;2.92;;;;;;;;;;4924652;29;20043;-89
2022/07/24 12:33:17;;;;;;;4.05;3.20;;;;;;;;;;4946673;28;20031;-89
2022/07/24 12:35:55;;;;;;;3.97;2.58;;;;;;;;;;4946208;28;20460;-89
2022/07/24 12:38:25;;;;;;;5.03;2.97;;;;;;;;;;4930833;29;20118;-88
2022/07/24 12:40:51;;;;;;;4.03;2.35;;;;;;;;;;4944478;28;20092;-89
2022/07/24 12:43:17;;;;;;;4.43;2.33;;;;;;;;;;4932980;29;20032;-89
2022/07/24 12:45:43;;;;;;;13.48;2.70;;;;;;;;;;4947175;28;20574;-90
2022/07/24 12:48:11;;;;;;;5.45;3.17;;;;;;;;;;4934618;29;20039;-89
2022/07/24 12:50:38;;;;;;;6.93;2.95;;;;;;;;;;4949467;28;20119;-90
2022/07/24 12:53:09;;;;;;;4.05;2.47;;;;;;;;;;4934489;29;20538;-89
2022/07/24 12:55:35;;;;;;;2.78;2.42;;;;;;;;;;4952335;28;20035;-90
2022/07/24 12:58:03;;;;;;;3.95;2.85;;;;;;;;;;4937625;29;20031;-89
2022/07/24 13:00:29;;;;;;;6.03;2.95;;;;;;;;;;4940051;29;20118;-89
2022/07/24 13:02:55;;;;;;;7.03;2.55;;;;;;;;;;4950914;28;20020;-89
2022/07/24 13:05:40;;;;;;;10.23;2.50;;;;;;;;;;4952379;28;20024;-89
2022/07/24 13:08:12;;;;;;;21.77;3.80;;;;;;;;;;4950342;28;20572;-91
2022/07/24 13:10:38;;;;;;;6.85;3.00;;;;;;;;;;4947419;28;20515;-90
2022/07/24 13:13:04;;;;;;;5.57;2.65;;;;;;;;;;4946680;28;20036;-90
2022/07/24 13:15:30;;;;;;;19.02;2.80;;;;;;;;;;4949537;28;20031;-91
2022/07/24 13:17:56;;;;;;;6.43;2.35;;;;;;;;;;4949768;28;20043;-90
2022/07/24 13:20:29;;;;;;;3.70;2.80;;;;;;;;;;4913160;29;20055;-90
2022/07/24 13:23:01;;;;;;;5.70;2.83;;;;;;;;;;4933173;29;20487;-90
2022/07/24 13:25:27;;;;;;;7.53;2.70;;;;;;;;;;4919352;29;20546;-90
2022/07/24 13:27:53;;;;;;;10.02;2.50;;;;;;;;;;4933675;29;20032;-91
2022/07/24 13:30:20;;;;;;;4.43;2.78;;;;;;;;;;4952482;28;20102;-90
2022/07/24 13:32:46;;;;;;;2.88;2.40;;;;;;;;;;4934046;29;20035;-91
2022/07/24 13:35:12;;;;;;;10.45;2.95;;;;;;;;;;4932618;29;20361;-90
2022/07/24 13:37:38;;;;;;;4.75;2.75;;;;;;;;;;4924622;29;20454;-91
2022/07/24 13:40:06;;;;;;;3.03;2.17;;;;;;;;;;4946412;29;20368;-90
2022/07/24 13:42:32;;;;;;;6.50;2.55;;;;;;;;;;4929058;29;20515;-90
2022/07/24 13:44:58;;;;;;;6.18;2.80;;;;;;;;;;4930852;29;20404;-90
2022/07/24 13:47:24;;;;;;;3.90;2.90;;;;;;;;;;4948297;28;20032;-90
2022/07/24 13:49:50;;;;;;;6.47;2.45;;;;;;;;;;4948099;28;20040;-90
2022/07/24 13:52:16;;;;;;;3.53;2.72;;;;;;;;;;4948880;28;20063;-90
2022/07/24 13:54:42;;;;;;;3.67;3.05;;;;;;;;;;4932567;29;20044;-90
2022/07/24 13:57:08;;;;;;;5.35;2.70;;;;;;;;;;4948708;28;20032;-90
2022/07/24 13:59:35;;;;;;;5.47;2.75;;;;;;;;;;4933377;29;20051;-91
2022/07/24 14:02:00;;;;;;;2.70;2.30;;;;;;;;;;4934028;29;20127;-91
2022/07/24 14:04:26;;;;;;;3.67;2.53;;;;;;;;;;4928949;29;20071;-90
2022/07/24 14:06:53;;;;;;;2.72;2.50;;;;;;;;;;4916001;29;20024;-91
2022/07/24 14:09:19;;;;;;;5.18;2.60;;;;;;;;;;4946688;28;20488;-90
2022/07/24 14:11:45;;;;;;;3.53;2.35;;;;;;;;;;4948335;28;20028;-91
2022/07/24 14:14:11;;;;;;;3.25;2.58;;;;;;;;;;4932626;29;20146;-90
2022/07/24 14:16:37;;;;;;;3.65;3.10;;;;;;;;;;4931783;29;20086;-90
2022/07/24 14:19:03;;;;;;;5.78;2.53;;;;;;;;;;4932021;29;20036;-90
2022/07/24 14:21:30;;;;;;;3.47;2.30;;;;;;;;;;4948197;28;20056;-90
2022/07/24 14:23:56;;;;;;;5.00;2.63;;;;;;;;;;4932396;29;20035;-91
2022/07/24 14:26:22;;;;;;;5.68;3.20;;;;;;;;;;4935000;29;20028;-90
2022/07/24 14:28:48;;;;;;;3.17;2.45;;;;;;;;;;4948314;28;20403;-91
2022/07/24 14:31:14;;;;;;;2.97;2.58;;;;;;;;;;4932062;29;20601;-90
2022/07/24 14:33:40;;;;;;;3.55;2.33;;;;;;;;;;4949869;28;20090;-91
2022/07/24 14:36:06;;;;;;;5.90;2.63;;;;;;;;;;4937843;29;20028;-91
2022/07/24 14:38:32;;;;;;;6.43;2.72;;;;;;;;;;4933650;29;20024;-91